sensor_id;sensor_type;location;lat;lon;timestamp;P1;durP1;ratioP1;P2;durP2;ratioP2
69900;SDS011;57183;50.930;5.406;2023-06-24T00:01:27;9.63;;;7.60;;
69900;SDS011;57183;50.930;5.406;2023-06-24T00:03:53;9.10;;;8.30;;
69900;SDS011;57183;50.930;5.406;2023-06-24T00:06:19;9.18;;;8.30;;
69900;SDS011;57183;50.930;5.406;2023-06-24T00:08:48;8.00;;;7.30;;
69900;SDS011;57183;50.930;5.406;2023-06-24T00:11:14;8.82;;;8.00;;
69900;SDS011;57183;50.930;5.406;2023-06-24T00:13:40;9.20;;;8.13;;
69900;SDS011;57183;50.930;5.406;2023-06-24T00:16:07;9.30;;;8.43;;
69900;SDS011;57183;50.930;5.406;2023-06-24T00:18:33;10.02;;;9.02;;
69900;SDS011;57183;50.930;5.406;2023-06-24T00:20:59;9.25;;;8.48;;
69900;SDS011;57183;50.930;5.406;2023-06-24T00:23:26;9.00;;;8.10;;
69900;SDS011;57183;50.930;5.406;2023-06-24T00:25:53;8.73;;;8.02;;
69900;SDS011;57183;50.930;5.406;2023-06-24T00:28:19;9.18;;;8.30;;
69900;SDS011;57183;50.930;5.406;2023-06-24T00:30:48;9.43;;;8.52;;
69900;SDS011;57183;50.930;5.406;2023-06-24T00:33:14;8.90;;;8.10;;
69900;SDS011;57183;50.930;5.406;2023-06-24T00:35:40;9.60;;;8.70;;
69900;SDS011;57183;50.930;5.406;2023-06-24T00:38:07;10.05;;;9.05;;
69900;SDS011;57183;50.930;5.406;2023-06-24T00:40:32;10.23;;;9.25;;
69900;SDS011;57183;50.930;5.406;2023-06-24T00:42:58;9.60;;;8.70;;
69900;SDS011;57183;50.930;5.406;2023-06-24T00:45:26;9.25;;;8.43;;
69900;SDS011;57183;50.930;5.406;2023-06-24T00:47:52;10.80;;;9.68;;
69900;SDS011;57183;50.930;5.406;2023-06-24T00:50:19;10.02;;;9.05;;
69900;SDS011;57183;50.930;5.406;2023-06-24T00:52:45;9.77;;;8.90;;
69900;SDS011;57183;50.930;5.406;2023-06-24T00:55:12;10.40;;;9.32;;
69900;SDS011;57183;50.930;5.406;2023-06-24T00:57:41;9.27;;;8.43;;
69900;SDS011;57183;50.930;5.406;2023-06-24T01:00:07;9.98;;;9.07;;
69900;SDS011;57183;50.930;5.406;2023-06-24T01:02:40;10.15;;;9.15;;
69900;SDS011;57183;50.930;5.406;2023-06-24T01:05:07;10.30;;;9.30;;
69900;SDS011;57183;50.930;5.406;2023-06-24T01:07:36;10.13;;;9.18;;
69900;SDS011;57183;50.930;5.406;2023-06-24T01:10:03;12.10;;;9.27;;
69900;SDS011;57183;50.930;5.406;2023-06-24T01:12:30;8.80;;;8.00;;
69900;SDS011;57183;50.930;5.406;2023-06-24T01:15:00;8.35;;;7.57;;
69900;SDS011;57183;50.930;5.406;2023-06-24T01:17:29;10.77;;;8.48;;
69900;SDS011;57183;50.930;5.406;2023-06-24T01:37:11;9.20;;;8.00;;
69900;SDS011;57183;50.930;5.406;2023-06-24T01:39:49;10.18;;;8.68;;
69900;SDS011;57183;50.930;5.406;2023-06-24T01:42:19;8.07;;;7.28;;
69900;SDS011;57183;50.930;5.406;2023-06-24T01:44:47;9.23;;;8.32;;
69900;SDS011;57183;50.930;5.406;2023-06-24T01:47:14;8.90;;;8.00;;
69900;SDS011;57183;50.930;5.406;2023-06-24T01:49:44;10.20;;;9.15;;
69900;SDS011;57183;50.930;5.406;2023-06-24T01:52:10;9.57;;;8.68;;
69900;SDS011;57183;50.930;5.406;2023-06-24T01:54:38;10.02;;;9.00;;
69900;SDS011;57183;50.930;5.406;2023-06-24T01:57:07;13.10;;;8.73;;
69900;SDS011;57183;50.930;5.406;2023-06-24T01:59:35;9.27;;;8.48;;
69900;SDS011;57183;50.930;5.406;2023-06-24T02:02:03;9.13;;;8.27;;
69900;SDS011;57183;50.930;5.406;2023-06-24T02:04:30;10.70;;;8.77;;
69900;SDS011;57183;50.930;5.406;2023-06-24T02:07:01;9.75;;;8.85;;
69900;SDS011;57183;50.930;5.406;2023-06-24T02:09:28;9.60;;;8.70;;
69900;SDS011;57183;50.930;5.406;2023-06-24T02:12:00;8.77;;;7.80;;
69900;SDS011;57183;50.930;5.406;2023-06-24T02:14:28;9.00;;;8.13;;
69900;SDS011;57183;50.930;5.406;2023-06-24T02:16:55;10.98;;;8.88;;
69900;SDS011;57183;50.930;5.406;2023-06-24T02:19:25;9.77;;;8.77;;
69900;SDS011;57183;50.930;5.406;2023-06-24T02:21:56;9.18;;;8.25;;
69900;SDS011;57183;50.930;5.406;2023-06-24T02:24:24;11.10;;;9.48;;
69900;SDS011;57183;50.930;5.406;2023-06-24T02:26:51;11.10;;;9.98;;
69900;SDS011;57183;50.930;5.406;2023-06-24T02:29:18;19.08;;;9.20;;
69900;SDS011;57183;50.930;5.406;2023-06-24T02:31:45;12.20;;;9.25;;
69900;SDS011;57183;50.930;5.406;2023-06-24T02:34:11;9.88;;;8.98;;
69900;SDS011;57183;50.930;5.406;2023-06-24T02:36:36;9.23;;;8.32;;
69900;SDS011;57183;50.930;5.406;2023-06-24T02:39:02;10.30;;;9.30;;
69900;SDS011;57183;50.930;5.406;2023-06-24T02:41:29;10.45;;;9.35;;
69900;SDS011;57183;50.930;5.406;2023-06-24T02:43:54;11.27;;;9.20;;
69900;SDS011;57183;50.930;5.406;2023-06-24T02:46:20;12.40;;;9.27;;
69900;SDS011;57183;50.930;5.406;2023-06-24T02:48:46;11.10;;;10.02;;
69900;SDS011;57183;50.930;5.406;2023-06-24T02:51:14;12.75;;;10.70;;
69900;SDS011;57183;50.930;5.406;2023-06-24T02:53:41;12.23;;;10.90;;
69900;SDS011;57183;50.930;5.406;2023-06-24T02:56:08;11.15;;;10.05;;
69900;SDS011;57183;50.930;5.406;2023-06-24T02:58:36;11.38;;;10.10;;
69900;SDS011;57183;50.930;5.406;2023-06-24T03:01:03;12.10;;;10.18;;
69900;SDS011;57183;50.930;5.406;2023-06-24T03:03:32;16.30;;;10.70;;
69900;SDS011;57183;50.930;5.406;2023-06-24T03:05:59;12.93;;;11.38;;
69900;SDS011;57183;50.930;5.406;2023-06-24T03:08:27;10.93;;;9.77;;
69900;SDS011;57183;50.930;5.406;2023-06-24T03:10:56;11.82;;;10.05;;
69900;SDS011;57183;50.930;5.406;2023-06-24T03:13:23;13.55;;;10.52;;
69900;SDS011;57183;50.930;5.406;2023-06-24T03:15:49;12.65;;;10.45;;
69900;SDS011;57183;50.930;5.406;2023-06-24T03:18:15;11.57;;;10.38;;
69900;SDS011;57183;50.930;5.406;2023-06-24T03:20:42;12.43;;;9.85;;
69900;SDS011;57183;50.930;5.406;2023-06-24T03:23:08;12.18;;;9.52;;
69900;SDS011;57183;50.930;5.406;2023-06-24T03:25:36;10.07;;;9.07;;
69900;SDS011;57183;50.930;5.406;2023-06-24T03:28:02;10.05;;;8.85;;
69900;SDS011;57183;50.930;5.406;2023-06-24T03:30:32;15.05;;;9.88;;
69900;SDS011;57183;50.930;5.406;2023-06-24T03:32:58;17.48;;;12.02;;
69900;SDS011;57183;50.930;5.406;2023-06-24T03:35:24;12.70;;;10.60;;
69900;SDS011;57183;50.930;5.406;2023-06-24T03:37:49;17.23;;;12.60;;
69900;SDS011;57183;50.930;5.406;2023-06-24T03:40:15;15.00;;;12.40;;
69900;SDS011;57183;50.930;5.406;2023-06-24T03:42:41;15.98;;;12.32;;
69900;SDS011;57183;50.930;5.406;2023-06-24T03:45:07;17.42;;;13.00;;
69900;SDS011;57183;50.930;5.406;2023-06-24T03:47:33;14.95;;;12.18;;
69900;SDS011;57183;50.930;5.406;2023-06-24T03:49:59;13.02;;;11.10;;
69900;SDS011;57183;50.930;5.406;2023-06-24T03:52:24;13.82;;;10.90;;
69900;SDS011;57183;50.930;5.406;2023-06-24T03:54:50;14.20;;;10.93;;
69900;SDS011;57183;50.930;5.406;2023-06-24T03:57:16;9.38;;;8.45;;
69900;SDS011;57183;50.930;5.406;2023-06-24T03:59:42;8.32;;;7.53;;
69900;SDS011;57183;50.930;5.406;2023-06-24T04:02:07;8.05;;;7.25;;
69900;SDS011;57183;50.930;5.406;2023-06-24T04:04:34;10.88;;;9.45;;
69900;SDS011;57183;50.930;5.406;2023-06-24T04:07:00;10.38;;;8.40;;
69900;SDS011;57183;50.930;5.406;2023-06-24T04:09:25;9.13;;;8.23;;
69900;SDS011;57183;50.930;5.406;2023-06-24T04:11:51;10.82;;;7.97;;
69900;SDS011;57183;50.930;5.406;2023-06-24T04:14:17;10.20;;;8.50;;
69900;SDS011;57183;50.930;5.406;2023-06-24T04:16:43;10.43;;;9.32;;
69900;SDS011;57183;50.930;5.406;2023-06-24T04:19:08;14.18;;;10.30;;
69900;SDS011;57183;50.930;5.406;2023-06-24T04:21:34;13.35;;;11.95;;
69900;SDS011;57183;50.930;5.406;2023-06-24T04:23:59;14.68;;;10.95;;
69900;SDS011;57183;50.930;5.406;2023-06-24T04:26:25;12.20;;;10.70;;
69900;SDS011;57183;50.930;5.406;2023-06-24T04:28:51;14.20;;;11.45;;
69900;SDS011;57183;50.930;5.406;2023-06-24T04:31:17;12.27;;;10.95;;
69900;SDS011;57183;50.930;5.406;2023-06-24T04:33:42;18.38;;;11.25;;
69900;SDS011;57183;50.930;5.406;2023-06-24T04:36:08;16.17;;;11.23;;
69900;SDS011;57183;50.930;5.406;2023-06-24T04:38:34;15.55;;;10.57;;
69900;SDS011;57183;50.930;5.406;2023-06-24T04:40:59;14.60;;;10.40;;
69900;SDS011;57183;50.930;5.406;2023-06-24T04:43:25;12.48;;;10.48;;
69900;SDS011;57183;50.930;5.406;2023-06-24T04:45:53;11.38;;;10.07;;
69900;SDS011;57183;50.930;5.406;2023-06-24T04:48:22;12.50;;;11.10;;
69900;SDS011;57183;50.930;5.406;2023-06-24T04:50:49;14.70;;;11.50;;
69900;SDS011;57183;50.930;5.406;2023-06-24T04:53:15;12.20;;;10.45;;
69900;SDS011;57183;50.930;5.406;2023-06-24T04:55:41;15.07;;;11.25;;
69900;SDS011;57183;50.930;5.406;2023-06-24T04:58:06;14.73;;;11.68;;
69900;SDS011;57183;50.930;5.406;2023-06-24T05:00:32;17.15;;;11.15;;
69900;SDS011;57183;50.930;5.406;2023-06-24T05:02:57;14.18;;;11.50;;
69900;SDS011;57183;50.930;5.406;2023-06-24T05:05:23;14.77;;;11.43;;
69900;SDS011;57183;50.930;5.406;2023-06-24T05:07:49;15.10;;;11.32;;
69900;SDS011;57183;50.930;5.406;2023-06-24T05:10:14;13.45;;;10.75;;
69900;SDS011;57183;50.930;5.406;2023-06-24T05:12:40;12.13;;;10.15;;
69900;SDS011;57183;50.930;5.406;2023-06-24T05:15:06;11.70;;;8.30;;
69900;SDS011;57183;50.930;5.406;2023-06-24T05:17:32;12.25;;;9.73;;
69900;SDS011;57183;50.930;5.406;2023-06-24T05:19:58;13.30;;;8.52;;
69900;SDS011;57183;50.930;5.406;2023-06-24T05:22:24;8.68;;;7.47;;
69900;SDS011;57183;50.930;5.406;2023-06-24T05:24:49;10.95;;;7.63;;
69900;SDS011;57183;50.930;5.406;2023-06-24T05:27:15;7.10;;;6.38;;
69900;SDS011;57183;50.930;5.406;2023-06-24T05:29:42;8.73;;;6.68;;
69900;SDS011;57183;50.930;5.406;2023-06-24T05:32:08;7.82;;;5.65;;
69900;SDS011;57183;50.930;5.406;2023-06-24T05:34:33;7.97;;;6.40;;
69900;SDS011;57183;50.930;5.406;2023-06-24T05:37:00;9.75;;;6.97;;
69900;SDS011;57183;50.930;5.406;2023-06-24T05:39:26;6.60;;;5.38;;
69900;SDS011;57183;50.930;5.406;2023-06-24T05:41:51;9.30;;;5.65;;
69900;SDS011;57183;50.930;5.406;2023-06-24T05:44:17;6.60;;;5.68;;
69900;SDS011;57183;50.930;5.406;2023-06-24T05:46:46;9.68;;;5.63;;
69900;SDS011;57183;50.930;5.406;2023-06-24T05:49:12;6.47;;;5.38;;
69900;SDS011;57183;50.930;5.406;2023-06-24T05:51:38;8.55;;;4.93;;
69900;SDS011;57183;50.930;5.406;2023-06-24T05:54:04;7.10;;;5.30;;
69900;SDS011;57183;50.930;5.406;2023-06-24T05:56:29;6.05;;;4.72;;
69900;SDS011;57183;50.930;5.406;2023-06-24T05:58:56;5.00;;;4.18;;
69900;SDS011;57183;50.930;5.406;2023-06-24T06:01:21;8.90;;;5.18;;
69900;SDS011;57183;50.930;5.406;2023-06-24T06:03:47;5.30;;;4.68;;
69900;SDS011;57183;50.930;5.406;2023-06-24T06:06:13;7.43;;;4.57;;
69900;SDS011;57183;50.930;5.406;2023-06-24T06:08:38;6.32;;;4.72;;
69900;SDS011;57183;50.930;5.406;2023-06-24T06:11:04;5.05;;;3.72;;
69900;SDS011;57183;50.930;5.406;2023-06-24T06:13:30;5.03;;;4.22;;
69900;SDS011;57183;50.930;5.406;2023-06-24T06:15:56;6.50;;;4.57;;
69900;SDS011;57183;50.930;5.406;2023-06-24T06:18:22;6.57;;;4.32;;
69900;SDS011;57183;50.930;5.406;2023-06-24T06:20:48;7.68;;;4.50;;
69900;SDS011;57183;50.930;5.406;2023-06-24T06:23:14;6.55;;;3.60;;
69900;SDS011;57183;50.930;5.406;2023-06-24T06:25:40;4.38;;;3.08;;
69900;SDS011;57183;50.930;5.406;2023-06-24T06:28:06;5.40;;;3.60;;
69900;SDS011;57183;50.930;5.406;2023-06-24T06:30:32;7.32;;;3.65;;
69900;SDS011;57183;50.930;5.406;2023-06-24T06:32:57;5.40;;;3.80;;
69900;SDS011;57183;50.930;5.406;2023-06-24T06:35:23;5.30;;;3.58;;
69900;SDS011;57183;50.930;5.406;2023-06-24T06:37:49;5.68;;;3.25;;
69900;SDS011;57183;50.930;5.406;2023-06-24T06:40:21;6.13;;;3.35;;
69900;SDS011;57183;50.930;5.406;2023-06-24T06:42:47;11.05;;;3.80;;
69900;SDS011;57183;50.930;5.406;2023-06-24T06:45:13;3.95;;;2.80;;
69900;SDS011;57183;50.930;5.406;2023-06-24T06:47:38;5.82;;;3.47;;
69900;SDS011;57183;50.930;5.406;2023-06-24T06:50:04;9.88;;;3.42;;
69900;SDS011;57183;50.930;5.406;2023-06-24T06:52:30;4.72;;;3.25;;
69900;SDS011;57183;50.930;5.406;2023-06-24T06:54:56;4.47;;;2.63;;
69900;SDS011;57183;50.930;5.406;2023-06-24T06:57:22;4.43;;;3.28;;
69900;SDS011;57183;50.930;5.406;2023-06-24T06:59:47;5.20;;;2.92;;
69900;SDS011;57183;50.930;5.406;2023-06-24T07:02:15;3.30;;;2.83;;
69900;SDS011;57183;50.930;5.406;2023-06-24T07:04:41;2.97;;;2.25;;
69900;SDS011;57183;50.930;5.406;2023-06-24T07:07:08;3.95;;;2.60;;
69900;SDS011;57183;50.930;5.406;2023-06-24T07:09:33;2.72;;;2.03;;
69900;SDS011;57183;50.930;5.406;2023-06-24T07:11:59;4.00;;;2.53;;
69900;SDS011;57183;50.930;5.406;2023-06-24T07:14:25;3.05;;;2.47;;
69900;SDS011;57183;50.930;5.406;2023-06-24T07:16:50;3.35;;;2.33;;
69900;SDS011;57183;50.930;5.406;2023-06-24T07:19:16;8.48;;;2.47;;
69900;SDS011;57183;50.930;5.406;2023-06-24T07:21:42;3.88;;;2.10;;
69900;SDS011;57183;50.930;5.406;2023-06-24T07:24:08;2.80;;;2.13;;
69900;SDS011;57183;50.930;5.406;2023-06-24T07:26:34;2.00;;;1.80;;
69900;SDS011;57183;50.930;5.406;2023-06-24T07:28:59;4.03;;;2.35;;
69900;SDS011;57183;50.930;5.406;2023-06-24T07:31:25;3.13;;;2.10;;
69900;SDS011;57183;50.930;5.406;2023-06-24T07:33:51;3.42;;;2.25;;
69900;SDS011;57183;50.930;5.406;2023-06-24T07:36:16;3.15;;;1.80;;
69900;SDS011;57183;50.930;5.406;2023-06-24T07:38:42;2.67;;;1.95;;
69900;SDS011;57183;50.930;5.406;2023-06-24T07:41:08;3.83;;;2.00;;
69900;SDS011;57183;50.930;5.406;2023-06-24T07:43:33;3.70;;;1.48;;
69900;SDS011;57183;50.930;5.406;2023-06-24T07:45:59;4.18;;;2.15;;
69900;SDS011;57183;50.930;5.406;2023-06-24T07:48:25;2.00;;;1.27;;
69900;SDS011;57183;50.930;5.406;2023-06-24T07:50:50;2.70;;;2.00;;
69900;SDS011;57183;50.930;5.406;2023-06-24T07:53:16;4.60;;;2.20;;
69900;SDS011;57183;50.930;5.406;2023-06-24T07:55:41;2.55;;;1.67;;
69900;SDS011;57183;50.930;5.406;2023-06-24T07:58:07;1.85;;;1.63;;
69900;SDS011;57183;50.930;5.406;2023-06-24T08:00:33;4.03;;;1.77;;
69900;SDS011;57183;50.930;5.406;2023-06-24T08:02:59;4.20;;;1.70;;
69900;SDS011;57183;50.930;5.406;2023-06-24T08:05:24;4.75;;;2.00;;
69900;SDS011;57183;50.930;5.406;2023-06-24T08:07:50;3.17;;;1.50;;
69900;SDS011;57183;50.930;5.406;2023-06-24T08:10:17;3.05;;;1.48;;
69900;SDS011;57183;50.930;5.406;2023-06-24T08:12:43;9.23;;;1.85;;
69900;SDS011;57183;50.930;5.406;2023-06-24T08:15:08;4.00;;;1.38;;
69900;SDS011;57183;50.930;5.406;2023-06-24T08:17:34;1.90;;;1.50;;
69900;SDS011;57183;50.930;5.406;2023-06-24T08:20:01;1.73;;;1.25;;
69900;SDS011;57183;50.930;5.406;2023-06-24T08:22:27;1.90;;;1.35;;
69900;SDS011;57183;50.930;5.406;2023-06-24T08:24:53;2.42;;;1.20;;
69900;SDS011;57183;50.930;5.406;2023-06-24T08:27:19;1.58;;;1.23;;
69900;SDS011;57183;50.930;5.406;2023-06-24T08:29:44;1.98;;;1.15;;
69900;SDS011;57183;50.930;5.406;2023-06-24T08:32:10;2.60;;;1.13;;
69900;SDS011;57183;50.930;5.406;2023-06-24T08:34:36;1.90;;;1.45;;
69900;SDS011;57183;50.930;5.406;2023-06-24T08:37:01;3.35;;;1.48;;
69900;SDS011;57183;50.930;5.406;2023-06-24T08:39:27;1.25;;;1.02;;
69900;SDS011;57183;50.930;5.406;2023-06-24T08:41:53;2.35;;;1.23;;
69900;SDS011;57183;50.930;5.406;2023-06-24T08:44:19;2.13;;;1.30;;
69900;SDS011;57183;50.930;5.406;2023-06-24T08:46:44;2.17;;;1.20;;
69900;SDS011;57183;50.930;5.406;2023-06-24T08:49:15;1.55;;;1.13;;
69900;SDS011;57183;50.930;5.406;2023-06-24T08:52:08;2.00;;;1.20;;
69900;SDS011;57183;50.930;5.406;2023-06-24T08:54:38;2.15;;;1.30;;
69900;SDS011;57183;50.930;5.406;2023-06-24T08:57:06;2.58;;;1.65;;
69900;SDS011;57183;50.930;5.406;2023-06-24T08:59:33;1.23;;;1.00;;
69900;SDS011;57183;50.930;5.406;2023-06-24T09:02:00;2.08;;;1.13;;
69900;SDS011;57183;50.930;5.406;2023-06-24T09:04:26;1.55;;;1.00;;
69900;SDS011;57183;50.930;5.406;2023-06-24T09:06:51;1.27;;;1.08;;
69900;SDS011;57183;50.930;5.406;2023-06-24T09:09:20;2.95;;;1.73;;
69900;SDS011;57183;50.930;5.406;2023-06-24T09:14:40;1.38;;;1.08;;
69900;SDS011;57183;50.930;5.406;2023-06-24T09:17:06;1.08;;;0.77;;
69900;SDS011;57183;50.930;5.406;2023-06-24T09:19:34;1.70;;;1.13;;
69900;SDS011;57183;50.930;5.406;2023-06-24T09:22:05;3.00;;;1.33;;
69900;SDS011;57183;50.930;5.406;2023-06-24T09:24:32;1.40;;;1.00;;
69900;SDS011;57183;50.930;5.406;2023-06-24T09:26:59;1.60;;;1.33;;
69900;SDS011;57183;50.930;5.406;2023-06-24T09:29:26;1.98;;;1.38;;
69900;SDS011;57183;50.930;5.406;2023-06-24T09:32:04;2.90;;;1.27;;
69900;SDS011;57183;50.930;5.406;2023-06-24T09:34:30;2.58;;;1.70;;
69900;SDS011;57183;50.930;5.406;2023-06-24T09:36:57;1.55;;;1.20;;
69900;SDS011;57183;50.930;5.406;2023-06-24T09:39:24;1.90;;;1.23;;
69900;SDS011;57183;50.930;5.406;2023-06-24T09:41:55;2.05;;;1.85;;
69900;SDS011;57183;50.930;5.406;2023-06-24T09:44:26;1.70;;;1.13;;
69900;SDS011;57183;50.930;5.406;2023-06-24T09:46:52;2.30;;;1.38;;
69900;SDS011;57183;50.930;5.406;2023-06-24T09:49:19;2.38;;;1.60;;
69900;SDS011;57183;50.930;5.406;2023-06-24T09:51:45;1.70;;;1.40;;
69900;SDS011;57183;50.930;5.406;2023-06-24T09:54:12;2.45;;;1.45;;
69900;SDS011;57183;50.930;5.406;2023-06-24T09:56:41;1.58;;;1.10;;
69900;SDS011;57183;50.930;5.406;2023-06-24T09:59:12;1.73;;;1.30;;
69900;SDS011;57183;50.930;5.406;2023-06-24T10:01:39;2.50;;;1.60;;
69900;SDS011;57183;50.930;5.406;2023-06-24T10:04:07;1.80;;;1.42;;
69900;SDS011;57183;50.930;5.406;2023-06-24T10:06:34;2.80;;;1.48;;
69900;SDS011;57183;50.930;5.406;2023-06-24T10:09:00;2.15;;;1.40;;
69900;SDS011;57183;50.930;5.406;2023-06-24T10:11:26;4.32;;;1.75;;
69900;SDS011;57183;50.930;5.406;2023-06-24T10:13:52;2.08;;;1.10;;
69900;SDS011;57183;50.930;5.406;2023-06-24T10:16:19;3.97;;;1.38;;
69900;SDS011;57183;50.930;5.406;2023-06-24T10:18:45;1.90;;;1.20;;
69900;SDS011;57183;50.930;5.406;2023-06-24T10:21:12;2.65;;;1.40;;
69900;SDS011;57183;50.930;5.406;2023-06-24T10:23:40;2.08;;;1.45;;
69900;SDS011;57183;50.930;5.406;2023-06-24T10:26:25;3.05;;;1.30;;
69900;SDS011;57183;50.930;5.406;2023-06-24T10:40:00;3.05;;;1.60;;
69900;SDS011;57183;50.930;5.406;2023-06-24T10:47:36;1.98;;;1.48;;
69900;SDS011;57183;50.930;5.406;2023-06-24T10:50:04;2.08;;;1.55;;
69900;SDS011;57183;50.930;5.406;2023-06-24T10:52:31;3.10;;;1.20;;
69900;SDS011;57183;50.930;5.406;2023-06-24T10:54:58;2.83;;;1.40;;
69900;SDS011;57183;50.930;5.406;2023-06-24T10:57:27;2.05;;;1.30;;
69900;SDS011;57183;50.930;5.406;2023-06-24T10:59:54;3.58;;;1.75;;
69900;SDS011;57183;50.930;5.406;2023-06-24T11:02:21;3.92;;;1.27;;
69900;SDS011;57183;50.930;5.406;2023-06-24T11:07:26;2.03;;;1.45;;
69900;SDS011;57183;50.930;5.406;2023-06-24T11:09:56;3.83;;;1.33;;
69900;SDS011;57183;50.930;5.406;2023-06-24T11:12:27;2.22;;;1.27;;
69900;SDS011;57183;50.930;5.406;2023-06-24T11:14:55;4.63;;;1.48;;
69900;SDS011;57183;50.930;5.406;2023-06-24T11:17:26;2.17;;;1.50;;
69900;SDS011;57183;50.930;5.406;2023-06-24T11:19:52;3.45;;;1.23;;
69900;SDS011;57183;50.930;5.406;2023-06-24T11:22:19;1.38;;;0.98;;
69900;SDS011;57183;50.930;5.406;2023-06-24T11:24:45;2.08;;;0.88;;
69900;SDS011;57183;50.930;5.406;2023-06-24T11:27:10;1.95;;;1.25;;
69900;SDS011;57183;50.930;5.406;2023-06-24T11:29:36;1.83;;;0.85;;
69900;SDS011;57183;50.930;5.406;2023-06-24T11:32:06;1.40;;;0.88;;
69900;SDS011;57183;50.930;5.406;2023-06-24T11:34:33;1.63;;;0.90;;
69900;SDS011;57183;50.930;5.406;2023-06-24T11:37:08;2.08;;;1.02;;
69900;SDS011;57183;50.930;5.406;2023-06-24T11:39:37;1.27;;;0.82;;
69900;SDS011;57183;50.930;5.406;2023-06-24T11:42:05;1.33;;;0.95;;
69900;SDS011;57183;50.930;5.406;2023-06-24T11:44:33;1.83;;;1.08;;
69900;SDS011;57183;50.930;5.406;2023-06-24T11:47:05;1.35;;;0.70;;
69900;SDS011;57183;50.930;5.406;2023-06-24T11:49:32;3.13;;;0.90;;
69900;SDS011;57183;50.930;5.406;2023-06-24T11:52:12;1.10;;;0.80;;
69900;SDS011;57183;50.930;5.406;2023-06-24T11:54:40;1.40;;;0.93;;
69900;SDS011;57183;50.930;5.406;2023-06-24T11:57:07;2.00;;;0.95;;
69900;SDS011;57183;50.930;5.406;2023-06-24T11:59:33;1.58;;;0.95;;
69900;SDS011;57183;50.930;5.406;2023-06-24T12:01:59;1.67;;;1.10;;
69900;SDS011;57183;50.930;5.406;2023-06-24T12:04:32;1.50;;;1.20;;
69900;SDS011;57183;50.930;5.406;2023-06-24T12:07:02;1.27;;;0.80;;
69900;SDS011;57183;50.930;5.406;2023-06-24T12:09:28;1.90;;;1.17;;
69900;SDS011;57183;50.930;5.406;2023-06-24T12:11:54;1.70;;;1.10;;
69900;SDS011;57183;50.930;5.406;2023-06-24T12:14:19;1.50;;;1.00;;
69900;SDS011;57183;50.930;5.406;2023-06-24T12:16:45;3.28;;;1.10;;
69900;SDS011;57183;50.930;5.406;2023-06-24T12:19:11;0.88;;;0.85;;
69900;SDS011;57183;50.930;5.406;2023-06-24T12:21:36;0.90;;;0.75;;
69900;SDS011;57183;50.930;5.406;2023-06-24T12:24:04;1.63;;;1.15;;
69900;SDS011;57183;50.930;5.406;2023-06-24T12:26:30;1.58;;;0.90;;
69900;SDS011;57183;50.930;5.406;2023-06-24T12:28:56;1.23;;;0.82;;
69900;SDS011;57183;50.930;5.406;2023-06-24T12:31:23;2.00;;;1.40;;
69900;SDS011;57183;50.930;5.406;2023-06-24T12:33:50;2.70;;;0.93;;
69900;SDS011;57183;50.930;5.406;2023-06-24T12:36:16;2.50;;;1.23;;
69900;SDS011;57183;50.930;5.406;2023-06-24T12:38:42;1.42;;;1.00;;
69900;SDS011;57183;50.930;5.406;2023-06-24T12:41:08;1.73;;;1.00;;
69900;SDS011;57183;50.930;5.406;2023-06-24T12:43:34;1.85;;;1.00;;
69900;SDS011;57183;50.930;5.406;2023-06-24T12:45:59;1.70;;;1.02;;
69900;SDS011;57183;50.930;5.406;2023-06-24T12:48:25;1.48;;;0.90;;
69900;SDS011;57183;50.930;5.406;2023-06-24T12:50:51;1.95;;;0.85;;
69900;SDS011;57183;50.930;5.406;2023-06-24T12:53:18;1.60;;;0.98;;
69900;SDS011;57183;50.930;5.406;2023-06-24T12:55:45;3.38;;;1.42;;
69900;SDS011;57183;50.930;5.406;2023-06-24T12:58:12;4.60;;;1.13;;
69900;SDS011;57183;50.930;5.406;2023-06-24T13:00:39;2.30;;;1.10;;
69900;SDS011;57183;50.930;5.406;2023-06-24T13:03:05;1.13;;;0.75;;
69900;SDS011;57183;50.930;5.406;2023-06-24T13:05:31;1.50;;;0.90;;
69900;SDS011;57183;50.930;5.406;2023-06-24T13:07:57;1.35;;;0.80;;
69900;SDS011;57183;50.930;5.406;2023-06-24T13:10:22;2.03;;;1.20;;
69900;SDS011;57183;50.930;5.406;2023-06-24T13:12:48;1.63;;;1.00;;
69900;SDS011;57183;50.930;5.406;2023-06-24T13:15:14;2.17;;;1.20;;
69900;SDS011;57183;50.930;5.406;2023-06-24T13:17:39;1.38;;;1.05;;
69900;SDS011;57183;50.930;5.406;2023-06-24T13:20:05;1.40;;;1.00;;
69900;SDS011;57183;50.930;5.406;2023-06-24T13:22:31;3.55;;;0.90;;
69900;SDS011;57183;50.930;5.406;2023-06-24T13:24:57;1.80;;;1.15;;
69900;SDS011;57183;50.930;5.406;2023-06-24T13:27:23;2.63;;;1.08;;
69900;SDS011;57183;50.930;5.406;2023-06-24T13:29:48;1.42;;;1.15;;
69900;SDS011;57183;50.930;5.406;2023-06-24T13:32:14;2.35;;;1.40;;
69900;SDS011;57183;50.930;5.406;2023-06-24T13:34:40;1.83;;;0.90;;
69900;SDS011;57183;50.930;5.406;2023-06-24T13:37:06;2.00;;;1.20;;
69900;SDS011;57183;50.930;5.406;2023-06-24T13:39:31;1.90;;;1.23;;
69900;SDS011;57183;50.930;5.406;2023-06-24T13:41:57;1.27;;;1.00;;
69900;SDS011;57183;50.930;5.406;2023-06-24T13:44:23;2.00;;;1.05;;
69900;SDS011;57183;50.930;5.406;2023-06-24T13:46:49;1.73;;;1.02;;
69900;SDS011;57183;50.930;5.406;2023-06-24T13:49:17;1.95;;;0.93;;
69900;SDS011;57183;50.930;5.406;2023-06-24T13:51:43;1.20;;;0.82;;
69900;SDS011;57183;50.930;5.406;2023-06-24T13:54:08;3.33;;;1.10;;
69900;SDS011;57183;50.930;5.406;2023-06-24T13:56:34;1.33;;;1.00;;
69900;SDS011;57183;50.930;5.406;2023-06-24T13:59:00;1.92;;;1.33;;
69900;SDS011;57183;50.930;5.406;2023-06-24T14:01:26;1.40;;;0.98;;
69900;SDS011;57183;50.930;5.406;2023-06-24T14:03:53;1.60;;;1.10;;
69900;SDS011;57183;50.930;5.406;2023-06-24T14:06:20;1.92;;;1.17;;
69900;SDS011;57183;50.930;5.406;2023-06-24T14:08:47;1.67;;;1.27;;
69900;SDS011;57183;50.930;5.406;2023-06-24T14:11:14;2.50;;;1.30;;
69900;SDS011;57183;50.930;5.406;2023-06-24T14:13:40;1.00;;;0.82;;
69900;SDS011;57183;50.930;5.406;2023-06-24T14:16:07;1.65;;;0.90;;
69900;SDS011;57183;50.930;5.406;2023-06-24T14:18:33;1.38;;;0.90;;
69900;SDS011;57183;50.930;5.406;2023-06-24T14:21:00;5.10;;;0.90;;
69900;SDS011;57183;50.930;5.406;2023-06-24T14:23:27;1.05;;;0.90;;
69900;SDS011;57183;50.930;5.406;2023-06-24T14:25:53;0.80;;;0.80;;
69900;SDS011;57183;50.930;5.406;2023-06-24T14:28:20;1.23;;;0.90;;
69900;SDS011;57183;50.930;5.406;2023-06-24T14:30:46;1.67;;;1.27;;
69900;SDS011;57183;50.930;5.406;2023-06-24T14:33:12;1.60;;;0.80;;
69900;SDS011;57183;50.930;5.406;2023-06-24T14:35:38;0.77;;;0.63;;
69900;SDS011;57183;50.930;5.406;2023-06-24T14:38:04;2.63;;;1.00;;
69900;SDS011;57183;50.930;5.406;2023-06-24T14:40:30;1.15;;;0.82;;
69900;SDS011;57183;50.930;5.406;2023-06-24T14:42:57;0.80;;;0.80;;
69900;SDS011;57183;50.930;5.406;2023-06-24T14:45:22;1.13;;;0.95;;
69900;SDS011;57183;50.930;5.406;2023-06-24T14:47:48;1.70;;;1.00;;
69900;SDS011;57183;50.930;5.406;2023-06-24T14:50:14;1.48;;;1.00;;
69900;SDS011;57183;50.930;5.406;2023-06-24T14:52:40;1.83;;;0.95;;
69900;SDS011;57183;50.930;5.406;2023-06-24T14:55:05;1.02;;;0.73;;
69900;SDS011;57183;50.930;5.406;2023-06-24T14:57:31;1.15;;;0.80;;
69900;SDS011;57183;50.930;5.406;2023-06-24T14:59:57;1.52;;;0.80;;
69900;SDS011;57183;50.930;5.406;2023-06-24T15:02:23;1.25;;;0.88;;
69900;SDS011;57183;50.930;5.406;2023-06-24T15:04:50;0.98;;;0.70;;
69900;SDS011;57183;50.930;5.406;2023-06-24T15:07:16;1.05;;;0.80;;
69900;SDS011;57183;50.930;5.406;2023-06-24T15:09:42;1.15;;;0.90;;
69900;SDS011;57183;50.930;5.406;2023-06-24T15:12:08;2.22;;;0.70;;
69900;SDS011;57183;50.930;5.406;2023-06-24T15:14:34;0.90;;;0.80;;
69900;SDS011;57183;50.930;5.406;2023-06-24T15:17:00;1.02;;;0.82;;
69900;SDS011;57183;50.930;5.406;2023-06-24T15:19:26;1.15;;;0.95;;